createdAt,value
2023-03-30T00:01:50.831Z,34.58
2023-03-30T00:04:38.241Z,34.60
2023-03-30T00:07:25.476Z,34.92
2023-03-30T00:10:14.919Z,34.79
2023-03-30T00:13:00.904Z,34.53
2023-03-30T00:15:47.734Z,34.87
2023-03-30T00:18:37.441Z,34.40
2023-03-30T00:21:23.549Z,34.53
2023-03-30T00:24:09.844Z,34.70
2023-03-30T00:26:55.936Z,35.12
2023-03-30T00:29:42.542Z,35.16
2023-03-30T00:32:28.339Z,35.38
2023-03-30T00:35:15.171Z,34.82
2023-03-30T00:38:01.780Z,34.64
2023-03-30T00:40:56.490Z,34.88
2023-03-30T00:44:03.142Z,35.32
2023-03-30T00:46:49.152Z,34.97
2023-03-30T00:49:35.052Z,35.19
2023-03-30T00:52:24.975Z,34.90
2023-03-30T00:55:12.076Z,34.81
2023-03-30T00:57:58.218Z,35.65
2023-03-30T01:00:47.221Z,34.82
2023-03-30T01:03:55.623Z,35.42
2023-03-30T01:06:43.661Z,35.80
2023-03-30T01:09:30.026Z,34.99
2023-03-30T01:12:15.965Z,35.56
2023-03-30T01:15:03.074Z,35.30
2023-03-30T01:18:14.548Z,35.99
2023-03-30T01:21:24.000Z,35.84
2023-03-30T01:24:55.672Z,35.35
2023-03-30T01:28:07.325Z,36.35
2023-03-30T01:31:15.339Z,36.54
2023-03-30T01:34:32.094Z,36.19
2023-03-30T01:37:34.753Z,36.26
2023-03-30T01:40:32.343Z,37.14
2023-03-30T01:43:29.189Z,35.89
2023-03-30T01:46:34.894Z,36.25
2023-03-30T01:49:30.526Z,36.37
2023-03-30T01:52:31.889Z,36.30
2023-03-30T01:55:41.929Z,36.76
2023-03-30T01:58:33.897Z,36.21
2023-03-30T02:01:20.886Z,35.91
2023-03-30T02:04:09.734Z,36.23
2023-03-30T02:07:02.126Z,36.51
2023-03-30T02:09:50.417Z,36.39
2023-03-30T02:12:36.647Z,36.27
2023-03-30T02:15:44.116Z,36.30
2023-03-30T02:18:30.626Z,36.53
2023-03-30T02:21:17.534Z,36.55
2023-03-30T02:24:06.806Z,36.49
2023-03-30T02:26:54.485Z,36.75
2023-03-30T02:29:43.285Z,36.47
2023-03-30T02:32:34.084Z,36.90
2023-03-30T02:35:22.392Z,36.85
2023-03-30T02:38:14.289Z,36.99
2023-03-30T02:41:07.363Z,37.04
2023-03-30T02:43:59.144Z,37.40
2023-03-30T02:46:48.156Z,36.77
2023-03-30T02:49:49.284Z,37.14
2023-03-30T02:52:55.677Z,37.85
2023-03-30T02:56:13.287Z,37.52
2023-03-30T02:59:31.106Z,38.22
2023-03-30T03:02:22.308Z,37.38
2023-03-30T03:05:17.079Z,37.33
2023-03-30T03:08:18.997Z,37.69
2023-03-30T03:11:08.187Z,37.10
2023-03-30T03:13:55.653Z,37.24
2023-03-30T03:16:42.562Z,36.99
2023-03-30T03:19:37.632Z,37.29
2023-03-30T03:22:23.812Z,37.25
2023-03-30T03:25:11.804Z,37.38
2023-03-30T03:28:16.386Z,37.44
2023-03-30T03:31:27.488Z,37.69
2023-03-30T03:34:13.189Z,37.85
2023-03-30T03:37:33.277Z,37.44
2023-03-30T03:40:19.145Z,37.51
2023-03-30T03:43:04.822Z,37.71
2023-03-30T03:45:51.884Z,37.55
2023-03-30T03:48:39.467Z,37.59
2023-03-30T03:51:25.323Z,37.90
2023-03-30T03:54:11.106Z,37.88
2023-03-30T03:56:58.361Z,38.03
2023-03-30T03:59:45.414Z,38.05
2023-03-30T04:02:32.600Z,37.91
2023-03-30T04:05:18.672Z,38.14
2023-03-30T04:08:05.273Z,38.17
2023-03-30T04:10:51.068Z,38.61
2023-03-30T04:13:55.908Z,38.21
2023-03-30T04:16:58.092Z,38.27
2023-03-30T04:20:12.480Z,38.59
2023-03-30T04:23:22.515Z,38.38
2023-03-30T04:26:30.455Z,38.80
2023-03-30T04:29:41.212Z,38.55
2023-03-30T04:32:41.600Z,38.54
2023-03-30T04:35:46.697Z,38.81
2023-03-30T04:39:06.023Z,38.57
2023-03-30T04:42:14.451Z,38.72
2023-03-30T04:45:30.128Z,38.64
2023-03-30T04:48:48.396Z,38.76
2023-03-30T04:52:00.602Z,39.04
2023-03-30T04:55:19.043Z,38.82
2023-03-30T04:58:23.075Z,39.37
2023-03-30T05:01:31.729Z,39.24
2023-03-30T05:04:49.998Z,39.24
2023-03-30T05:07:38.405Z,39.12
2023-03-30T05:10:43.144Z,39.54
2023-03-30T05:14:02.402Z,39.36
2023-03-30T05:17:06.720Z,39.70
2023-03-30T05:20:14.519Z,39.93
2023-03-30T05:26:43.252Z,39.90
2023-03-30T05:29:41.459Z,40.14
2023-03-30T05:32:59.516Z,39.55
2023-03-30T05:36:03.769Z,41.83
2023-03-30T05:39:09.176Z,39.80
2023-03-30T05:42:15.138Z,40.08
2023-03-30T05:45:24.270Z,39.70
2023-03-30T05:48:27.224Z,39.40
2023-03-30T05:51:48.503Z,40.28
2023-03-30T05:54:49.480Z,39.92
2023-03-30T05:58:10.608Z,39.99
2023-03-30T06:01:14.568Z,39.93
2023-03-30T06:04:03.601Z,39.96
2023-03-30T06:06:50.135Z,40.07
2023-03-30T06:09:35.811Z,40.29
2023-03-30T06:12:28.848Z,39.69
2023-03-30T06:15:14.922Z,40.29
2023-03-30T06:18:05.235Z,40.28
2023-03-30T06:20:54.569Z,40.03
2023-03-30T06:23:43.469Z,40.17
2023-03-30T06:26:35.719Z,39.95
2023-03-30T06:29:21.367Z,40.21
2023-03-30T06:32:07.279Z,40.02
2023-03-30T06:35:16.344Z,40.22
2023-03-30T06:38:02.415Z,40.19
2023-03-30T06:40:49.552Z,39.95
2023-03-30T06:43:36.506Z,39.97
2023-03-30T06:46:44.831Z,39.74
2023-03-30T06:49:31.062Z,39.53
2023-03-30T06:52:49.073Z,39.49
2023-03-30T06:55:36.929Z,39.68
2023-03-30T06:58:23.757Z,39.73
2023-03-30T07:01:15.957Z,39.28
2023-03-30T07:04:22.166Z,39.20
2023-03-30T07:07:30.847Z,39.30
2023-03-30T07:10:16.798Z,38.80
2023-03-30T07:13:04.089Z,39.20
2023-03-30T07:15:52.494Z,39.13
2023-03-30T07:18:38.741Z,38.82
2023-03-30T07:21:24.787Z,38.46
2023-03-30T07:24:10.557Z,38.50
2023-03-30T07:26:56.575Z,38.75
2023-03-30T07:29:42.853Z,37.94
2023-03-30T07:32:28.796Z,38.44
2023-03-30T07:35:15.015Z,38.30
2023-03-30T07:38:03.905Z,38.03
2023-03-30T07:40:54.193Z,38.07
2023-03-30T07:43:42.404Z,37.58
2023-03-30T07:46:28.416Z,38.01
2023-03-30T07:49:15.317Z,37.60
2023-03-30T07:52:01.506Z,37.82
2023-03-30T07:55:09.136Z,37.89
2023-03-30T07:58:08.551Z,37.92
2023-03-30T08:00:54.949Z,37.93
2023-03-30T08:04:18.227Z,37.72
2023-03-30T08:07:09.881Z,37.56
2023-03-30T08:09:56.555Z,37.50
2023-03-30T08:12:42.483Z,37.45
2023-03-30T08:15:28.560Z,37.06
2023-03-30T08:18:15.095Z,37.17
2023-03-30T08:21:01.238Z,37.15
2023-03-30T08:23:47.074Z,37.07
2023-03-30T08:26:32.930Z,37.18
2023-03-30T08:29:18.894Z,36.98
2023-03-30T08:32:04.770Z,36.86
2023-03-30T08:34:50.510Z,36.86
2023-03-30T08:37:36.420Z,36.80
2023-03-30T08:40:23.238Z,36.65
2023-03-30T08:43:25.982Z,36.00
2023-03-30T08:46:19.124Z,36.55
2023-03-30T08:49:14.250Z,36.28
2023-03-30T08:52:03.859Z,36.39
2023-03-30T08:54:52.272Z,36.43
2023-03-30T08:58:12.821Z,36.04
2023-03-30T09:01:25.276Z,35.16
2023-03-30T09:04:33.925Z,36.03
2023-03-30T09:07:21.770Z,36.05
2023-03-30T09:10:15.455Z,35.90
2023-03-30T09:13:02.636Z,35.87
2023-03-30T09:15:54.640Z,34.26
2023-03-30T09:18:42.372Z,35.58
2023-03-30T09:21:30.042Z,35.61
2023-03-30T09:24:21.664Z,35.40
2023-03-30T09:27:20.503Z,35.15
2023-03-30T09:30:20.515Z,35.25
2023-03-30T09:33:13.232Z,35.26
2023-03-30T09:36:27.702Z,34.21
2023-03-30T09:39:18.428Z,35.16
2023-03-30T09:42:38.120Z,34.55
2023-03-30T09:45:33.248Z,34.43
2023-03-30T09:48:21.339Z,34.79
2023-03-30T09:51:36.811Z,33.56
2023-03-30T09:54:23.794Z,34.86
2023-03-30T09:57:28.448Z,31.80
2023-03-30T10:00:31.500Z,33.18
2023-03-30T10:03:23.301Z,33.90
2023-03-30T10:06:16.780Z,33.95
2023-03-30T10:09:06.291Z,34.00
2023-03-30T10:11:52.996Z,33.93
2023-03-30T10:14:38.791Z,33.59
2023-03-30T10:17:25.745Z,33.42
2023-03-30T10:20:37.549Z,33.52
2023-03-30T10:23:33.482Z,32.13
2023-03-30T10:26:20.658Z,33.35
2023-03-30T10:29:11.035Z,33.46
2023-03-30T10:32:43.248Z,31.34
2023-03-30T10:35:37.206Z,32.11
2023-03-30T10:38:23.681Z,33.08
2023-03-30T10:41:21.146Z,31.86
2023-03-30T10:44:24.297Z,32.03
2023-03-30T10:47:48.111Z,30.85
2023-03-30T10:50:52.189Z,32.91
2023-03-30T10:54:01.102Z,32.66
2023-03-30T10:56:52.597Z,32.77
2023-03-30T11:00:13.043Z,32.82
2023-03-30T11:02:59.021Z,32.62
2023-03-30T11:05:47.445Z,32.57
2023-03-30T11:08:37.825Z,32.27
2023-03-30T11:11:31.574Z,31.91
2023-03-30T11:14:26.176Z,31.56
2023-03-30T11:17:19.025Z,29.71
2023-03-30T11:20:19.201Z,30.66
2023-03-30T11:23:20.823Z,31.01
2023-03-30T11:26:21.608Z,30.19
2023-03-30T11:29:29.404Z,29.22
2023-03-30T11:32:46.800Z,24.18
2023-03-30T11:35:43.962Z,27.65
2023-03-30T11:38:39.492Z,27.30
2023-03-30T11:41:37.038Z,25.59
2023-03-30T11:44:22.918Z,27.44
2023-03-30T11:47:30.090Z,22.76
2023-03-30T11:50:32.502Z,26.90
2023-03-30T11:53:21.988Z,24.71
2023-03-30T11:56:36.330Z,24.71
2023-03-30T11:59:33.279Z,22.66
2023-03-30T12:02:31.245Z,23.11
2023-03-30T12:05:45.582Z,20.77
2023-03-30T12:08:43.967Z,23.90
2023-03-30T12:11:48.156Z,24.82
2023-03-30T12:14:43.161Z,21.40
2023-03-30T12:17:35.015Z,23.94
2023-03-30T12:20:37.535Z,21.36
2023-03-30T12:23:40.827Z,24.68
2023-03-30T12:26:37.370Z,25.37
2023-03-30T12:29:58.454Z,25.71
2023-03-30T12:32:31.543Z,26.56
2023-03-30T12:35:56.236Z,25.89
2023-03-30T12:38:43.581Z,25.62
2023-03-30T12:41:48.777Z,25.91
2023-03-30T12:44:59.183Z,24.11
2023-03-30T12:48:16.623Z,25.08
2023-03-30T12:51:48.066Z,22.73
2023-03-30T12:54:40.435Z,24.80
2023-03-30T12:57:44.445Z,24.77
2023-03-30T13:00:49.417Z,22.26
2023-03-30T13:04:02.540Z,23.76
2023-03-30T13:06:56.925Z,24.83
2023-03-30T13:10:00.526Z,24.25
2023-03-30T13:12:49.667Z,24.89
2023-03-30T13:15:46.329Z,24.67
2023-03-30T13:18:34.637Z,25.42
2023-03-30T13:21:25.456Z,25.47
2023-03-30T13:24:26.579Z,25.07
2023-03-30T13:27:18.330Z,25.73
2023-03-30T13:30:07.860Z,25.83
2023-03-30T13:32:59.742Z,25.83
2023-03-30T13:35:46.284Z,25.83
2023-03-30T13:39:07.031Z,25.67
2023-03-30T13:42:17.941Z,26.22
2023-03-30T13:45:28.058Z,25.54
2023-03-30T13:48:29.833Z,25.49
2023-03-30T13:51:19.933Z,25.42
2023-03-30T13:54:17.258Z,24.94
2023-03-30T13:57:16.630Z,24.92
2023-03-30T14:00:10.625Z,25.02
2023-03-30T14:02:56.696Z,25.35
2023-03-30T14:05:42.904Z,24.91
2023-03-30T14:08:30.397Z,24.42
2023-03-30T14:11:22.708Z,22.96
2023-03-30T14:14:16.354Z,22.99
2023-03-30T14:17:02.958Z,21.85
2023-03-30T14:20:15.798Z,21.57
2023-03-30T14:23:02.903Z,22.72
2023-03-30T14:26:03.746Z,21.98
2023-03-30T14:28:54.669Z,22.06
2023-03-30T14:31:42.332Z,21.50
2023-03-30T14:34:33.378Z,21.62
2023-03-30T14:37:21.538Z,21.42
2023-03-30T14:40:16.976Z,21.32
2023-03-30T14:43:04.008Z,20.83
2023-03-30T14:45:51.744Z,20.74
2023-03-30T14:48:43.105Z,20.66
2023-03-30T14:51:43.069Z,19.73
2023-03-30T14:54:29.977Z,20.74
2023-03-30T14:57:17.525Z,21.29
2023-03-30T15:00:31.658Z,21.55
2023-03-30T15:03:30.689Z,22.24
2023-03-30T15:06:24.546Z,22.60
2023-03-30T15:09:17.089Z,22.96
2023-03-30T15:12:03.629Z,23.46
2023-03-30T15:14:51.005Z,23.96
2023-03-30T15:17:39.633Z,24.21
2023-03-30T15:20:27.461Z,24.49
2023-03-30T15:23:13.978Z,24.51
2023-03-30T15:26:02.118Z,24.85
2023-03-30T15:28:53.716Z,24.90
2023-03-30T15:31:39.679Z,25.41
2023-03-30T15:34:35.409Z,25.60
2023-03-30T15:37:34.982Z,25.69
2023-03-30T15:40:28.629Z,25.87
2023-03-30T15:43:30.572Z,26.04
2023-03-30T15:46:16.599Z,25.92
2023-03-30T15:49:02.487Z,25.97
2023-03-30T15:51:52.096Z,25.91
2023-03-30T15:54:41.742Z,26.04
2023-03-30T15:57:31.176Z,26.16
2023-03-30T16:00:26.102Z,26.14
2023-03-30T16:03:13.076Z,26.11
2023-03-30T16:05:59.105Z,26.46
2023-03-30T16:08:45.307Z,26.33
2023-03-30T16:11:31.284Z,26.45
2023-03-30T16:14:22.618Z,26.44
2023-03-30T16:17:10.561Z,26.38
2023-03-30T16:19:56.340Z,26.66
2023-03-30T16:22:42.083Z,26.88
2023-03-30T16:28:18.028Z,27.21
2023-03-30T16:31:08.027Z,27.40
2023-03-30T16:33:53.784Z,27.18
2023-03-30T16:36:40.280Z,27.44
2023-03-30T16:39:28.014Z,27.43
2023-03-30T16:42:14.162Z,27.49
2023-03-30T16:44:59.801Z,27.62
2023-03-30T16:47:45.672Z,27.75
2023-03-30T16:50:57.790Z,28.80
2023-03-30T16:53:43.968Z,28.02
2023-03-30T16:56:30.271Z,28.44
2023-03-30T16:59:24.735Z,28.41
2023-03-30T17:02:14.547Z,28.58
2023-03-30T17:05:03.002Z,28.47
2023-03-30T17:07:48.936Z,28.74
2023-03-30T17:10:39.379Z,28.63
2023-03-30T17:13:25.209Z,28.87
2023-03-30T17:16:13.022Z,29.05
2023-03-30T17:18:58.884Z,29.20
2023-03-30T17:21:46.156Z,29.38
2023-03-30T17:24:32.244Z,29.32
2023-03-30T17:27:18.415Z,29.19
2023-03-30T17:30:05.426Z,29.66
2023-03-30T17:32:51.703Z,29.90
2023-03-30T17:35:38.478Z,29.53
2023-03-30T17:38:24.609Z,30.16
2023-03-30T17:41:15.468Z,29.79
2023-03-30T17:44:01.421Z,30.04
2023-03-30T17:46:47.057Z,30.02
2023-03-30T17:49:41.203Z,31.90
2023-03-30T17:52:30.348Z,31.95
2023-03-30T17:55:17.536Z,30.46
2023-03-30T17:58:03.694Z,30.73
2023-03-30T18:00:50.296Z,30.55
2023-03-30T18:03:38.590Z,30.64
2023-03-30T18:06:25.194Z,30.82
2023-03-30T18:09:18.203Z,31.37
2023-03-30T18:12:07.572Z,31.32
2023-03-30T18:14:57.792Z,31.27
2023-03-30T18:17:43.888Z,31.29
2023-03-30T18:20:33.765Z,31.30
2023-03-30T18:23:20.155Z,31.39
2023-03-30T18:26:09.429Z,31.22
2023-03-30T18:29:20.378Z,32.69
2023-03-30T18:32:14.675Z,31.79
2023-03-30T18:35:02.549Z,32.04
2023-03-30T18:37:49.182Z,32.07
2023-03-30T18:40:41.629Z,32.36
2023-03-30T18:43:28.404Z,32.00
2023-03-30T18:46:14.956Z,32.08
2023-03-30T18:49:00.938Z,32.11
2023-03-30T18:51:48.975Z,32.61
2023-03-30T18:54:40.645Z,32.71
2023-03-30T18:57:27.181Z,32.46
2023-03-30T19:00:18.330Z,32.80
2023-03-30T19:03:04.161Z,33.25
2023-03-30T19:05:51.088Z,32.74
2023-03-30T19:08:37.220Z,33.17
2023-03-30T19:11:24.120Z,33.30
2023-03-30T19:14:12.170Z,33.33
2023-03-30T19:17:01.749Z,33.51
2023-03-30T19:19:47.871Z,33.44
2023-03-30T19:22:36.726Z,33.66
2023-03-30T19:25:23.756Z,33.68
2023-03-30T19:28:10.515Z,33.88
2023-03-30T19:30:56.383Z,33.94
2023-03-30T19:33:42.533Z,33.85
2023-03-30T19:36:28.336Z,33.97
2023-03-30T19:39:14.322Z,34.46
2023-03-30T19:42:00.238Z,34.11
2023-03-30T19:44:46.520Z,34.15
2023-03-30T19:47:34.781Z,34.19
2023-03-30T19:50:23.402Z,34.42
2023-03-30T19:53:09.478Z,34.50
2023-03-30T19:55:55.429Z,34.56
2023-03-30T19:58:41.189Z,34.49
2023-03-30T20:01:27.324Z,34.49
2023-03-30T20:04:13.985Z,34.78
2023-03-30T20:07:01.391Z,34.86
2023-03-30T20:09:47.602Z,34.89
2023-03-30T20:12:34.661Z,35.27
2023-03-30T20:15:26.073Z,35.27
2023-03-30T20:18:18.457Z,35.05
2023-03-30T20:21:04.774Z,35.39
2023-03-30T20:23:50.887Z,35.61
2023-03-30T20:26:37.119Z,35.46
2023-03-30T20:29:23.058Z,35.54
2023-03-30T20:32:08.726Z,35.68
2023-03-30T20:34:55.081Z,35.55
2023-03-30T20:37:41.553Z,35.66
2023-03-30T20:40:27.483Z,35.72
2023-03-30T20:43:13.327Z,35.88
2023-03-30T20:46:10.410Z,35.78
2023-03-30T20:49:02.080Z,35.95
2023-03-30T20:51:50.769Z,36.46
2023-03-30T20:54:37.759Z,36.06
2023-03-30T20:57:24.540Z,36.00
2023-03-30T21:00:12.687Z,36.18
2023-03-30T21:02:58.650Z,36.36
2023-03-30T21:05:44.407Z,36.14
2023-03-30T21:08:31.622Z,36.30
2023-03-30T21:11:17.996Z,36.44
2023-03-30T21:14:04.045Z,36.38
2023-03-30T21:16:50.125Z,36.39
2023-03-30T21:19:36.805Z,36.07
2023-03-30T21:22:23.071Z,36.21
2023-03-30T21:25:09.479Z,36.59
2023-03-30T21:27:55.630Z,36.45
2023-03-30T21:30:41.540Z,36.55
2023-03-30T21:33:29.469Z,36.55
2023-03-30T21:36:15.354Z,36.28
2023-03-30T21:39:01.441Z,36.75
2023-03-30T21:41:47.511Z,36.50
2023-03-30T21:44:36.410Z,36.77
2023-03-30T21:47:22.323Z,36.75
2023-03-30T21:50:08.585Z,36.89
2023-03-30T21:52:58.215Z,36.77
2023-03-30T21:55:54.024Z,37.13
2023-03-30T21:59:13.300Z,37.04
2023-03-30T22:01:59.682Z,37.01
2023-03-30T22:04:49.215Z,36.94
2023-03-30T22:07:34.929Z,37.40
2023-03-30T22:10:21.502Z,37.15
2023-03-30T22:13:07.853Z,37.28
2023-03-30T22:16:03.842Z,37.72
2023-03-30T22:18:50.828Z,37.59
2023-03-30T22:21:37.378Z,37.29
2023-03-30T22:24:23.007Z,37.41
2023-03-30T22:27:11.350Z,37.32
2023-03-30T22:29:57.286Z,37.34
2023-03-30T22:32:43.213Z,37.49
2023-03-30T22:35:29.708Z,37.32
2023-03-30T22:38:16.321Z,37.44
2023-03-30T22:41:07.855Z,37.44
2023-03-30T22:43:56.669Z,37.38
2023-03-30T22:46:42.726Z,37.63
2023-03-30T22:49:30.287Z,37.51
2023-03-30T22:52:16.273Z,37.56
2023-03-30T22:55:02.030Z,37.70
2023-03-30T22:57:48.126Z,37.50
2023-03-30T23:00:34.075Z,37.62
2023-03-30T23:03:20.490Z,37.72
2023-03-30T23:06:08.167Z,37.92
2023-03-30T23:08:54.623Z,37.84
2023-03-30T23:11:46.463Z,37.99
2023-03-30T23:14:32.590Z,37.70
2023-03-30T23:17:18.347Z,37.90
2023-03-30T23:20:10.658Z,38.05
2023-03-30T23:22:56.925Z,37.91
2023-03-30T23:26:08.418Z,38.70
2023-03-30T23:28:56.296Z,38.05
2023-03-30T23:31:43.848Z,37.89
2023-03-30T23:34:29.964Z,38.13
2023-03-30T23:37:15.702Z,38.01
2023-03-30T23:40:07.919Z,38.17
2023-03-30T23:42:54.533Z,38.17
2023-03-30T23:45:42.735Z,38.49
2023-03-30T23:48:28.510Z,38.37
2023-03-30T23:51:14.378Z,38.65
2023-03-30T23:54:06.262Z,38.64
2023-03-30T23:56:57.731Z,40.13
2023-03-30T23:59:43.650Z,38.61
